Time;durP1;ratioP1;P1;durP2;ratioP2;P2;SDS_P1;SDS_P2;PMS_P1;PMS_P2;Temp;Humidity;BMP_temperature;BMP_pressure;BME280_temperature;BME280_humidity;BME280_pressure;Samples;Min_cycle;Max_cycle;Signal;HPM_P1;HPM_P2
2022/04/17 00:00:31;;;;;;;9.65;6.20;;;7.10;99.90;;;;;;5096490;28;20024;-50
2022/04/17 00:02:58;;;;;;;9.35;5.38;;;7.20;99.90;;;;;;5096728;28;20032;-50
2022/04/17 00:05:24;;;;;;;7.57;5.18;;;7.20;99.90;;;;;;5096776;28;20063;-50
2022/04/17 00:07:50;;;;;;;8.18;5.75;;;7.10;99.90;;;;;;5096744;28;20047;-50
2022/04/17 00:10:16;;;;;;;9.15;5.85;;;7.00;99.90;;;;;;5096684;28;20099;-50
2022/04/17 00:12:43;;;;;;;8.25;5.38;;;7.00;99.90;;;;;;5096378;28;20143;-50
2022/04/17 00:15:09;;;;;;;8.88;5.50;;;7.10;99.90;;;;;;5096615;28;20024;-50
2022/04/17 00:17:43;;;;;;;11.40;5.38;;;7.00;99.90;;;;;;5096341;28;20493;-50
2022/04/17 00:20:14;;;;;;;11.57;5.78;;;6.90;99.90;;;;;;5096435;28;20020;-50
2022/04/17 00:22:40;;;;;;;8.43;5.13;;;6.90;99.90;;;;;;5096437;28;20536;-50
2022/04/17 00:25:07;;;;;;;6.53;4.97;;;6.90;99.90;;;;;;5096443;28;20031;-50
2022/04/17 00:27:34;;;;;;;11.05;5.57;;;6.90;99.90;;;;;;5096432;28;20052;-50
2022/04/17 00:30:01;;;;;;;9.80;4.95;;;6.90;99.90;;;;;;5096167;28;20034;-50
2022/04/17 00:32:27;;;;;;;6.88;5.22;;;6.90;99.90;;;;;;5096357;28;20050;-50
2022/04/17 00:34:53;;;;;;;6.65;4.65;;;6.90;99.90;;;;;;5096149;28;20032;-50
2022/04/17 00:37:19;;;;;;;12.32;5.07;;;6.90;99.90;;;;;;5095909;28;20355;-50
2022/04/17 00:39:45;;;;;;;7.55;5.15;;;6.90;99.90;;;;;;5096291;28;20028;-51
2022/04/17 00:42:11;;;;;;;14.60;6.57;;;6.90;99.90;;;;;;5096088;28;20028;-52
2022/04/17 00:44:37;;;;;;;13.82;5.75;;;6.90;99.90;;;;;;5095998;28;20102;-50
2022/04/17 00:47:04;;;;;;;7.75;4.65;;;6.90;99.90;;;;;;5096027;28;20046;-52
2022/04/17 00:49:31;;;;;;;7.53;4.97;;;6.90;99.90;;;;;;5095850;28;20512;-51
2022/04/17 00:51:58;;;;;;;12.43;5.97;;;6.90;99.90;;;;;;5095782;28;20028;-52
2022/04/17 00:54:26;;;;;;;13.10;5.63;;;6.90;99.90;;;;;;5095895;28;20104;-52
2022/04/17 00:56:53;;;;;;;9.23;4.90;;;6.90;99.90;;;;;;5095689;28;20093;-52
2022/04/17 00:59:22;;;;;;;8.57;4.70;;;6.90;99.90;;;;;;5094538;28;20055;-52
2022/04/17 01:01:48;;;;;;;6.90;4.90;;;6.90;99.90;;;;;;5095668;28;20028;-52
2022/04/17 01:04:14;;;;;;;8.20;4.40;;;6.90;99.90;;;;;;5095555;28;20028;-52
2022/04/17 01:06:41;;;;;;;7.03;5.10;;;6.90;99.90;;;;;;5095543;28;20027;-52
2022/04/17 01:09:07;;;;;;;8.60;4.13;;;6.80;99.90;;;;;;5095636;28;20073;-52
2022/04/17 01:11:35;;;;;;;10.02;4.70;;;6.80;99.90;;;;;;5095242;28;20024;-52
2022/04/17 01:14:04;;;;;;;8.70;5.90;;;6.90;99.90;;;;;;5095322;28;20032;-52
2022/04/17 01:16:29;;;;;;;15.85;4.95;;;6.80;99.90;;;;;;5095221;28;20024;-52
2022/04/17 01:19:01;;;;;;;8.88;4.68;;;6.90;99.90;;;;;;5095307;28;20028;-52
2022/04/17 01:21:28;;;;;;;7.60;4.15;;;6.80;99.90;;;;;;5095347;28;20035;-52
2022/04/17 01:26:57;;;;;;;6.78;3.90;;;6.80;99.90;;;;;;5095236;28;20024;-52
2022/04/17 01:29:31;;;;;;;4.63;3.58;;;6.80;99.90;;;;;;5095318;28;20028;-52
2022/04/17 01:32:01;;;;;;;6.53;3.72;;;6.90;99.90;;;;;;5095203;28;20017;-52
2022/04/17 01:34:27;;;;;;;7.18;4.32;;;6.80;99.90;;;;;;5095036;28;20031;-52
2022/04/17 01:36:54;;;;;;;10.88;3.97;;;6.80;99.90;;;;;;5095030;28;20035;-52
2022/04/17 01:39:20;;;;;;;6.85;4.22;;;6.70;99.90;;;;;;5095010;28;20031;-52
2022/04/17 01:41:48;;;;;;;10.18;4.65;;;6.80;99.90;;;;;;5094964;28;20057;-52
2022/04/17 01:44:16;;;;;;;6.22;3.80;;;6.70;99.90;;;;;;5094860;28;20096;-52
2022/04/17 01:46:42;;;;;;;5.55;3.60;;;6.70;99.90;;;;;;5094844;28;20028;-52
2022/04/17 01:49:08;;;;;;;8.88;3.75;;;6.70;99.90;;;;;;5094802;28;20020;-52
2022/04/17 01:51:38;;;;;;;6.50;3.95;;;6.70;99.90;;;;;;5094842;28;20093;-52
2022/04/17 01:54:06;;;;;;;6.78;3.65;;;6.70;99.90;;;;;;5094993;28;20028;-52
2022/04/17 01:56:33;;;;;;;11.43;3.63;;;6.70;99.90;;;;;;5094773;28;20504;-52
2022/04/17 01:58:59;;;;;;;6.38;3.75;;;6.70;99.90;;;;;;5094630;28;20428;-52
2022/04/17 02:01:25;;;;;;;6.30;3.25;;;6.70;99.90;;;;;;5094580;28;20020;-52
2022/04/17 02:03:51;;;;;;;5.45;3.67;;;6.70;99.90;;;;;;5094687;28;20458;-52
2022/04/17 02:06:17;;;;;;;5.68;3.10;;;6.60;99.90;;;;;;5094681;28;20032;-52
2022/04/17 02:08:44;;;;;;;5.13;3.25;;;6.70;99.90;;;;;;5094507;28;20016;-52
2022/04/17 02:11:12;;;;;;;4.78;3.38;;;6.60;99.90;;;;;;5094203;28;20032;-52
2022/04/17 02:13:38;;;;;;;4.22;3.70;;;6.60;99.90;;;;;;5094606;28;20032;-52
2022/04/17 02:16:05;;;;;;;4.32;3.50;;;6.50;99.90;;;;;;5094377;28;20032;-52
2022/04/17 02:18:31;;;;;;;7.25;3.92;;;6.60;99.90;;;;;;5094451;28;20052;-52
2022/04/17 02:20:57;;;;;;;6.47;3.65;;;6.50;99.90;;;;;;5094512;28;20096;-52
2022/04/17 02:23:23;;;;;;;5.28;3.30;;;6.50;99.90;;;;;;5094530;28;20101;-52
2022/04/17 02:25:49;;;;;;;6.82;3.58;;;6.60;99.90;;;;;;5094472;28;20081;-52
2022/04/17 02:28:15;;;;;;;4.90;3.15;;;6.60;99.90;;;;;;5094426;28;20507;-52
2022/04/17 02:30:41;;;;;;;6.95;3.08;;;6.50;99.90;;;;;;5094295;28;20028;-52
2022/04/17 02:33:07;;;;;;;6.63;3.28;;;6.60;99.90;;;;;;5094822;28;20076;-52
2022/04/17 02:35:33;;;;;;;5.47;3.42;;;6.50;99.90;;;;;;5094284;28;20036;-52
2022/04/17 02:37:59;;;;;;;4.90;3.03;;;6.50;99.90;;;;;;5094460;28;20108;-52
2022/04/17 02:40:25;;;;;;;5.75;3.88;;;6.50;99.90;;;;;;5094406;28;20028;-52
2022/04/17 02:42:53;;;;;;;5.53;3.40;;;6.60;99.90;;;;;;5094316;28;20471;-52
2022/04/17 02:45:19;;;;;;;6.45;3.30;;;6.50;99.90;;;;;;5094198;28;20024;-52
2022/04/17 02:47:46;;;;;;;4.07;2.92;;;6.50;99.90;;;;;;5094266;28;20393;-52
2022/04/17 02:50:18;;;;;;;6.85;3.22;;;6.50;99.90;;;;;;5094087;28;20028;-52
2022/04/17 02:52:45;;;;;;;7.40;3.60;;;6.50;99.90;;;;;;5094101;28;20452;-52
2022/04/17 02:55:11;;;;;;;8.32;4.10;;;6.50;99.90;;;;;;5094292;28;20024;-52
2022/04/17 02:57:38;;;;;;;4.55;3.13;;;6.40;99.90;;;;;;5094181;28;20040;-52
2022/04/17 03:00:06;;;;;;;4.88;3.20;;;6.40;99.90;;;;;;5093999;28;20024;-52
2022/04/17 03:05:37;;;;;;;5.28;3.75;;;6.40;99.90;;;;;;5094071;28;20021;-51
2022/04/17 03:08:09;;;;;;;4.72;3.17;;;6.40;99.90;;;;;;5094211;28;20096;-52
2022/04/17 03:10:36;;;;;;;11.48;3.40;;;6.40;99.90;;;;;;5094187;28;20065;-52
2022/04/17 03:13:06;;;;;;;5.90;3.17;;;6.40;99.90;;;;;;5093730;28;20035;-52
2022/04/17 03:15:32;;;;;;;6.47;3.42;;;6.50;99.90;;;;;;5094056;28;20032;-52
2022/04/17 03:17:59;;;;;;;7.32;3.67;;;6.50;99.90;;;;;;5093801;28;20048;-52
2022/04/17 03:20:26;;;;;;;4.25;3.25;;;6.50;99.90;;;;;;5093874;28;20020;-52
2022/04/17 03:22:52;;;;;;;4.82;3.08;;;6.50;99.90;;;;;;5095857;28;20024;-52
2022/04/17 03:25:18;;;;;;;4.63;3.38;;;6.40;99.90;;;;;;5097521;28;20035;-52
2022/04/17 03:27:46;;;;;;;5.45;3.22;;;6.50;99.90;;;;;;5097495;28;20373;-52
2022/04/17 03:30:17;;;;;;;4.18;2.95;;;6.40;99.90;;;;;;5097549;28;20371;-52
2022/04/17 03:32:44;;;;;;;;;;;6.50;99.90;;;;;;5097794;28;20028;-52
2022/04/17 03:35:11;;;;;;;7.30;3.60;;;6.40;99.90;;;;;;5097351;28;19904;-52
2022/04/17 03:37:37;;;;;;;7.07;3.65;;;6.40;99.90;;;;;;5097405;28;20030;-52
2022/04/17 03:40:03;;;;;;;5.00;3.17;;;6.40;99.90;;;;;;5097104;28;20529;-52
2022/04/17 03:42:29;;;;;;;6.43;3.33;;;6.50;99.90;;;;;;5097546;28;20031;-52
2022/04/17 03:44:55;;;;;;;5.72;3.35;;;6.40;99.90;;;;;;5097296;28;20024;-52
2022/04/17 03:47:22;;;;;;;6.90;3.92;;;6.50;99.90;;;;;;5097039;28;20016;-52
2022/04/17 03:49:48;;;;;;;4.85;3.05;;;6.40;99.90;;;;;;5097103;28;20217;-52
2022/04/17 03:52:14;;;;;;;4.63;2.90;;;6.40;99.90;;;;;;5097280;28;20155;-52
2022/04/17 03:54:40;;;;;;;4.72;3.15;;;6.40;99.90;;;;;;5096951;28;20028;-51
2022/04/17 03:57:06;;;;;;;6.32;3.28;;;6.50;99.90;;;;;;5097019;28;20035;-52
2022/04/17 03:59:33;;;;;;;11.00;3.35;;;6.40;99.90;;;;;;5097023;28;20068;-52
2022/04/17 04:02:00;;;;;;;4.88;3.60;;;6.50;99.90;;;;;;5096689;28;20024;-52
2022/04/17 04:04:25;;;;;;;6.50;3.75;;;6.50;99.90;;;;;;5096774;28;20039;-52
2022/04/17 04:06:51;;;;;;;5.35;2.92;;;6.50;99.90;;;;;;5096759;28;20024;-52
2022/04/17 04:09:17;;;;;;;5.20;3.50;;;6.50;99.90;;;;;;5096705;28;20480;-52
2022/04/17 04:11:44;;;;;;;4.63;3.17;;;6.50;99.90;;;;;;5096604;28;20140;-52
2022/04/17 04:14:10;;;;;;;4.63;3.38;;;6.40;99.90;;;;;;5096343;28;20031;-52
2022/04/17 04:16:37;;;;;;;5.03;3.25;;;6.40;99.90;;;;;;5096405;28;20477;-52
2022/04/17 04:19:05;;;;;;;10.65;4.57;;;6.40;99.90;;;;;;5096853;28;20085;-52
2022/04/17 04:21:31;;;;;;;8.80;3.83;;;6.30;99.90;;;;;;5096308;28;20539;-52
2022/04/17 04:23:57;;;;;;;5.75;3.33;;;6.40;99.90;;;;;;5096364;28;20464;-52
2022/04/17 04:26:23;;;;;;;4.82;2.70;;;6.50;99.90;;;;;;5096384;28;20059;-51
2022/04/17 04:28:49;;;;;;;11.30;3.17;;;6.50;99.90;;;;;;5096264;28;20555;-52
2022/04/17 04:31:15;;;;;;;7.45;3.95;;;6.50;99.90;;;;;;5096197;28;20035;-51
2022/04/17 04:33:42;;;;;;;4.78;3.22;;;6.40;99.90;;;;;;5096000;28;20105;-52
2022/04/17 04:36:14;;;;;;;10.82;4.00;;;6.40;99.90;;;;;;5096098;28;20428;-52
2022/04/17 04:38:40;;;;;;;10.48;3.80;;;6.40;99.90;;;;;;5096054;28;20032;-52
2022/04/17 04:41:06;;;;;;;8.35;3.83;;;6.40;99.90;;;;;;5096024;28;20085;-52
2022/04/17 04:43:32;;;;;;;11.77;4.53;;;6.40;99.90;;;;;;5095928;28;20050;-51
2022/04/17 04:46:07;;;;;;;6.82;3.58;;;6.50;99.90;;;;;;5095929;28;20024;-52
2022/04/17 04:51:29;;;;;;;9.27;3.97;;;6.40;99.90;;;;;;5095685;28;20036;-51
2022/04/17 04:53:56;;;;;;;7.60;3.53;;;6.50;99.90;;;;;;5095913;28;20085;-52
2022/04/17 04:56:24;;;;;;;4.82;3.33;;;6.50;99.90;;;;;;5095907;28;20028;-52
2022/04/17 04:58:50;;;;;;;8.98;4.50;;;6.60;99.90;;;;;;5095579;28;20456;-52
2022/04/17 05:01:16;;;;;;;5.55;3.50;;;6.60;99.90;;;;;;5095955;28;20024;-52
2022/04/17 05:03:42;;;;;;;17.02;9.43;;;6.70;99.90;;;;;;5095650;28;20020;-52
2022/04/17 05:06:08;;;;;;;13.98;9.02;;;6.70;99.90;;;;;;5095748;28;20509;-52
2022/04/17 05:08:34;;;;;;;14.85;10.38;;;6.70;99.90;;;;;;5095760;28;20149;-52
2022/04/17 05:11:00;;;;;;;12.50;8.85;;;6.70;99.70;;;;;;5095402;28;20016;-52
2022/04/17 05:13:26;;;;;;;7.95;3.70;;;6.80;99.90;;;;;;5095174;28;20032;-52
2022/04/17 05:15:52;;;;;;;3.78;2.75;;;6.80;99.10;;;;;;5095601;28;20036;-52
2022/04/17 05:18:18;;;;;;;6.30;3.33;;;6.80;99.90;;;;;;5095319;28;20044;-52
2022/04/17 05:20:44;;;;;;;8.52;3.35;;;6.80;99.90;;;;;;5095175;28;20036;-51
2022/04/17 05:23:26;;;;;;;4.72;3.05;;;6.80;99.90;;;;;;5095308;28;20020;-52
2022/04/17 05:25:54;;;;;;;3.30;2.83;;;6.80;99.90;;;;;;5095380;28;20063;-52
2022/04/17 05:28:21;;;;;;;5.20;3.05;;;6.80;99.80;;;;;;5095231;28;20538;-52
2022/04/17 05:30:47;;;;;;;6.07;3.25;;;6.90;99.90;;;;;;5095459;28;20027;-52
2022/04/17 05:33:17;;;;;;;4.43;2.97;;;6.90;99.90;;;;;;5094910;28;20024;-51
2022/04/17 05:35:43;;;;;;;3.90;2.60;;;6.80;99.90;;;;;;5095033;28;20127;-52
2022/04/17 05:38:09;;;;;;;8.10;3.08;;;6.90;99.90;;;;;;5095112;28;20051;-51
2022/04/17 05:40:39;;;;;;;5.00;3.00;;;6.80;99.90;;;;;;5095022;28;20462;-52
2022/04/17 05:43:05;;;;;;;5.80;3.90;;;6.90;99.90;;;;;;5095080;28;20103;-51
2022/04/17 05:45:32;;;;;;;5.63;2.85;;;6.90;99.90;;;;;;5094472;28;20066;-52
2022/04/17 05:47:59;;;;;;;6.03;3.60;;;7.00;98.40;;;;;;5094692;28;20028;-52
2022/04/17 05:50:27;;;;;;;11.38;4.18;;;7.00;99.90;;;;;;5095101;28;20062;-51
2022/04/17 05:52:53;;;;;;;6.78;3.95;;;7.00;99.80;;;;;;5094849;28;20036;-52
2022/04/17 05:55:19;;;;;;;6.72;3.78;;;7.00;98.30;;;;;;5094766;28;20024;-52
2022/04/17 05:57:45;;;;;;;8.25;4.57;;;7.10;98.50;;;;;;5094838;28;20450;-52
2022/04/17 06:00:12;;;;;;;12.13;5.10;;;7.10;98.00;;;;;;5094596;28;20111;-52
2022/04/17 06:02:41;;;;;;;13.57;5.80;;;7.10;97.90;;;;;;5094599;28;20051;-52
2022/04/17 06:05:08;;;;;;;7.85;4.72;;;7.20;95.90;;;;;;5095265;28;20122;-52
2022/04/17 06:07:34;;;;;;;10.65;4.90;;;7.20;96.60;;;;;;5094689;28;20090;-52
2022/04/17 06:10:05;;;;;;;8.27;3.33;;;7.20;96.20;;;;;;5094745;28;20032;-52
2022/04/17 06:12:31;;;;;;;10.63;3.80;;;7.20;94.80;;;;;;5094647;28;20039;-52
2022/04/17 06:14:56;;;;;;;13.07;6.25;;;7.20;95.00;;;;;;5094291;28;20060;-51
2022/04/17 06:17:23;;;;;;;20.65;8.25;;;7.20;94.10;;;;;;5094338;28;20138;-52
2022/04/17 06:19:48;;;;;;;41.20;15.88;;;7.20;95.00;;;;;;5094610;28;20165;-52
2022/04/17 06:22:14;;;;;;;19.52;6.38;;;7.30;94.70;;;;;;5094485;28;20047;-53
2022/04/17 06:24:40;;;;;;;70.80;25.40;;;7.30;94.00;;;;;;5094398;28;20028;-54
2022/04/17 06:27:06;;;;;;;32.38;14.90;;;7.30;94.90;;;;;;5094589;28;20465;-52
2022/04/17 06:29:32;;;;;;;5.28;3.55;;;7.30;95.50;;;;;;5094318;28;20024;-52
2022/04/17 06:31:58;;;;;;;56.70;25.63;;;7.30;94.70;;;;;;5094468;28;20024;-52
2022/04/17 06:34:24;;;;;;;48.28;22.17;;;7.40;95.50;;;;;;5094520;28;20103;-52
2022/04/17 06:36:50;;;;;;;16.08;5.38;;;7.40;96.20;;;;;;5094279;28;20108;-52
2022/04/17 06:39:16;;;;;;;27.52;11.70;;;7.40;91.90;;;;;;5094240;28;20021;-52
2022/04/17 06:41:43;;;;;;;9.85;4.85;;;7.40;94.00;;;;;;5094355;28;20035;-52
2022/04/17 06:44:11;;;;;;;12.75;6.35;;;7.50;90.90;;;;;;5094215;28;20050;-52
2022/04/17 06:46:38;;;;;;;11.73;5.70;;;7.50;91.60;;;;;;5094338;28;20027;-52
2022/04/17 06:49:06;;;;;;;12.63;6.63;;;7.50;82.70;;;;;;5094219;28;20028;-52
2022/04/17 06:51:33;;;;;;;6.22;2.67;;;7.60;90.00;;;;;;5094152;28;20032;-52
2022/04/17 06:53:59;;;;;;;4.70;3.13;;;7.60;82.80;;;;;;5094465;28;20085;-52
2022/04/17 06:56:25;;;;;;;4.65;2.72;;;7.60;87.60;;;;;;5095422;28;20032;-52
2022/04/17 06:58:51;;;;;;;9.85;4.00;;;7.70;84.60;;;;;;5098042;28;20032;-52
2022/04/17 07:01:18;;;;;;;12.50;4.20;;;7.80;80.70;;;;;;5097901;28;20032;-52
2022/04/17 07:03:47;;;;;;;4.88;2.85;;;7.90;91.40;;;;;;5098006;28;20466;-52
2022/04/17 07:06:13;;;;;;;3.05;2.50;;;7.90;78.20;;;;;;5097866;28;20020;-52
2022/04/17 07:08:39;;;;;;;5.55;2.95;;;8.00;76.10;;;;;;5097952;28;20039;-52
2022/04/17 07:11:05;;;;;;;5.72;2.53;;;8.10;72.30;;;;;;5097599;28;20474;-52
2022/04/17 07:13:31;;;;;;;5.10;2.67;;;8.20;85.30;;;;;;5097568;28;20036;-52
2022/04/17 07:15:57;;;;;;;8.77;4.03;;;8.50;85.50;;;;;;5097882;28;20093;-52
2022/04/17 07:18:23;;;;;;;3.95;2.33;;;8.70;76.90;;;;;;5097666;28;20044;-52
2022/04/17 07:20:49;;;;;;;3.90;2.63;;;8.80;66.90;;;;;;5097812;28;20043;-53
2022/04/17 07:23:15;;;;;;;3.88;2.50;;;9.00;73.60;;;;;;5097599;28;20021;-52
2022/04/17 07:25:41;;;;;;;7.53;2.80;;;9.10;67.80;;;;;;5097594;28;20027;-52
2022/04/17 07:28:14;;;;;;;8.85;4.90;;;9.00;64.80;;;;;;5097455;28;20102;-52
2022/04/17 07:30:41;;;;;;;6.13;3.47;;;9.10;73.70;;;;;;5097603;28;20058;-52
2022/04/17 07:33:06;;;;;;;5.88;2.63;;;9.20;63.80;;;;;;5097523;28;20030;-53
2022/04/17 07:35:33;;;;;;;6.53;3.53;;;9.10;63.60;;;;;;5097157;28;20118;-53
2022/04/17 07:38:01;;;;;;;4.50;3.08;;;9.20;75.50;;;;;;5097468;28;20067;-53
2022/04/17 07:40:29;;;;;;;6.53;4.47;;;9.30;66.00;;;;;;5097267;28;20051;-52
2022/04/17 07:43:00;;;;;;;5.30;3.22;;;9.40;62.00;;;;;;5097208;28;20022;-52
2022/04/17 07:45:28;;;;;;;3.10;2.47;;;9.50;67.90;;;;;;5097406;28;20102;-52
2022/04/17 07:47:54;;;;;;;3.38;2.90;;;9.60;70.70;;;;;;5097127;28;20020;-52
2022/04/17 07:50:23;;;;;;;5.28;3.05;;;9.90;66.50;;;;;;5097193;28;20027;-53
2022/04/17 07:52:50;;;;;;;5.05;3.30;;;9.90;57.90;;;;;;5097173;28;20034;-52
2022/04/17 07:55:17;;;;;;;5.65;2.65;;;9.90;64.80;;;;;;5096949;28;20085;-53
2022/04/17 08:00:57;;;;;;;6.65;3.33;;;10.70;60.20;;;;;;5096854;28;20034;-53
2022/04/17 08:03:34;;;;;;;8.02;3.13;;;11.10;53.30;;;;;;5096788;28;20481;-53
2022/04/17 08:06:05;;;;;;;6.13;3.10;;;11.40;55.30;;;;;;5096909;28;20106;-53
2022/04/17 08:08:35;;;;;;;4.65;2.67;;;12.20;54.10;;;;;;5096111;28;20032;-53
2022/04/17 08:11:02;;;;;;;4.05;2.60;;;12.60;52.90;;;;;;5096656;28;20036;-53
2022/04/17 08:13:28;;;;;;;4.05;3.00;;;13.00;53.80;;;;;;5078661;28;20130;-53
2022/04/17 08:15:54;;;;;;;5.25;3.05;;;13.70;51.00;;;;;;5096637;28;20429;-53
2022/04/17 08:18:20;;;;;;;4.18;2.80;;;14.10;50.00;;;;;;5096517;28;20052;-53
2022/04/17 08:20:46;;;;;;;6.80;4.07;;;13.90;44.40;;;;;;5096362;28;20096;-53
2022/04/17 08:23:12;;;;;;;11.57;5.65;;;13.60;44.90;;;;;;5096288;28;20108;-53
2022/04/17 08:25:38;;;;;;;5.32;3.47;;;13.70;45.40;;;;;;5096356;28;20485;-53
2022/04/17 08:28:05;;;;;;;8.52;4.47;;;13.50;43.60;;;;;;5096302;28;20024;-53
2022/04/17 08:30:33;;;;;;;5.30;3.10;;;13.50;43.20;;;;;;5096500;28;20036;-53
2022/04/17 08:33:00;;;;;;;8.18;3.88;;;13.30;42.70;;;;;;5096284;28;20056;-53
2022/04/17 08:35:26;;;;;;;13.52;6.18;;;13.30;43.00;;;;;;5096059;28;20028;-53
2022/04/17 08:37:52;;;;;;;4.35;2.58;;;13.40;43.30;;;;;;5096072;28;20032;-53
2022/04/17 08:40:19;;;;;;;7.25;3.35;;;13.80;44.10;;;;;;5095927;28;20063;-53
2022/04/17 08:42:45;;;;;;;3.33;2.50;;;14.20;44.60;;;;;;5096018;28;20485;-53
2022/04/17 08:45:14;;;;;;;4.75;2.90;;;14.10;41.20;;;;;;5095994;28;20100;-53
2022/04/17 08:47:41;;;;;;;4.63;2.88;;;14.20;42.90;;;;;;5096055;28;20081;-53
2022/04/17 08:50:08;;;;;;;4.10;2.85;;;14.40;42.70;;;;;;5095989;28;20031;-53
2022/04/17 08:52:35;;;;;;;4.18;2.70;;;14.60;43.30;;;;;;5095949;28;20028;-53
2022/04/17 08:55:02;;;;;;;4.20;2.50;;;14.60;43.30;;;;;;5095754;28;20032;-53
2022/04/17 08:57:28;;;;;;;5.72;2.92;;;14.40;40.00;;;;;;5095824;28;20038;-53
2022/04/17 08:59:54;;;;;;;4.22;2.95;;;14.50;43.80;;;;;;5095587;28;20023;-53
2022/04/17 09:02:20;;;;;;;4.90;2.97;;;14.60;41.20;;;;;;5094450;28;20487;-53
2022/04/17 09:04:46;;;;;;;4.10;2.95;;;14.60;42.10;;;;;;5095682;28;20036;-53
2022/04/17 09:07:13;;;;;;;3.65;2.60;;;15.00;42.40;;;;;;5095453;28;20028;-53
2022/04/17 09:09:54;;;;;;;3.63;2.70;;;14.50;39.30;;;;;;5095519;28;20359;-53
2022/04/17 09:12:25;;;;;;;3.33;2.67;;;14.80;41.40;;;;;;5095457;28;20111;-53
2022/04/17 09:14:55;;;;;;;5.50;2.53;;;14.60;40.30;;;;;;5095265;28;20024;-53
2022/04/17 09:17:32;;;;;;;4.15;2.70;;;14.70;40.30;;;;;;5095411;28;20458;-53
2022/04/17 09:19:58;;;;;;;3.83;2.90;;;15.30;40.90;;;;;;5094144;28;20024;-53
2022/04/17 09:22:25;;;;;;;4.70;2.40;;;15.60;40.10;;;;;;5095018;28;20031;-53
2022/04/17 09:24:51;;;;;;;4.07;2.88;;;15.80;39.00;;;;;;5095228;28;20024;-53
2022/04/17 09:27:25;;;;;;;5.32;2.78;;;15.80;38.30;;;;;;5095124;28;20024;-53
2022/04/17 09:29:51;;;;;;;5.88;2.47;;;16.00;38.00;;;;;;5095176;28;20032;-53
2022/04/17 09:32:20;;;;;;;2.47;2.28;;;15.50;36.80;;;;;;5095210;28;20024;-53
2022/04/17 09:34:55;;;;;;;3.22;2.47;;;15.00;36.40;;;;;;5095027;28;20513;-53
2022/04/17 09:37:23;;;;;;;4.72;2.90;;;15.10;39.10;;;;;;5094934;28;20062;-53
2022/04/17 09:39:52;;;;;;;3.92;2.90;;;14.30;37.80;;;;;;5094909;28;20374;-53
2022/04/17 09:42:25;;;;;;;4.38;2.58;;;14.90;39.00;;;;;;5094918;28;20051;-53
2022/04/17 09:44:54;;;;;;;8.10;2.65;;;15.70;39.90;;;;;;5095324;28;20075;-53
2022/04/17 09:47:26;;;;;;;3.20;2.30;;;15.90;36.90;;;;;;5094811;28;20067;-53
2022/04/17 09:50:00;;;;;;;6.95;3.15;;;16.40;38.00;;;;;;5094853;28;20418;-53
2022/04/17 09:52:28;;;;;;;8.85;5.15;;;16.40;34.30;;;;;;5094886;28;20117;-53
2022/04/17 09:54:55;;;;;;;3.08;2.38;;;16.70;35.70;;;;;;5094933;28;20031;-53
2022/04/17 09:57:29;;;;;;;5.40;3.20;;;17.00;36.50;;;;;;5076761;28;20082;-53
2022/04/17 09:59:56;;;;;;;4.25;2.40;;;17.30;37.20;;;;;;5094672;28;20032;-53
2022/04/17 10:02:25;;;;;;;3.92;2.30;;;17.20;33.70;;;;;;5094690;28;20032;-53
2022/04/17 10:04:51;;;;;;;5.25;2.55;;;16.30;32.20;;;;;;5094487;28;20081;-53
2022/04/17 10:07:22;;;;;;;3.25;2.28;;;15.90;34.60;;;;;;5094742;28;20035;-53
2022/04/17 10:09:49;;;;;;;4.15;2.33;;;15.40;35.20;;;;;;5094610;28;20046;-53
2022/04/17 10:12:19;;;;;;;3.97;2.60;;;15.30;36.10;;;;;;5094513;28;20088;-53
2022/04/17 10:14:52;;;;;;;4.30;2.55;;;15.40;35.70;;;;;;5094680;28;20028;-53
2022/04/17 10:17:23;;;;;;;3.95;2.40;;;15.60;35.70;;;;;;5094266;28;20047;-53
2022/04/17 10:19:50;;;;;;;3.38;2.50;;;15.60;35.80;;;;;;5094429;28;20027;-53
2022/04/17 10:22:20;;;;;;;3.30;2.35;;;16.10;35.70;;;;;;5094465;28;20027;-53
2022/04/17 10:24:54;;;;;;;4.63;2.30;;;16.20;34.00;;;;;;5094200;28;20028;-53
2022/04/17 10:27:32;;;;;;;3.28;2.50;;;16.60;36.00;;;;;;5094483;28;20081;-53
2022/04/17 10:30:02;;;;;;;4.95;2.50;;;16.50;33.60;;;;;;5094388;28;20028;-53
2022/04/17 10:32:40;;;;;;;3.10;2.23;;;16.20;34.00;;;;;;5097443;28;20020;-53
2022/04/17 10:35:10;;;;;;;4.55;2.67;;;16.10;33.90;;;;;;5098654;28;20111;-53
2022/04/17 10:38:13;;;;;;;3.83;2.70;;;15.30;34.00;;;;;;5098486;28;20035;-53
2022/04/17 10:40:40;;;;;;;8.25;2.92;;;15.20;35.40;;;;;;5098166;28;20028;-53
2022/04/17 10:43:06;;;;;;;3.20;2.30;;;15.30;39.00;;;;;;5098582;28;20016;-53
2022/04/17 10:45:32;;;;;;;3.15;2.05;;;15.70;35.10;;;;;;5098289;28;20193;-53
2022/04/17 10:48:10;;;;;;;5.47;3.10;;;16.20;36.70;;;;;;5098112;28;20081;-53
2022/04/17 10:50:49;;;;;;;6.63;2.97;;;16.70;35.70;;;;;;5098370;28;20024;-53
2022/04/17 10:53:29;;;;;;;4.22;2.53;;;16.90;34.50;;;;;;5098167;28;20036;-53
2022/04/17 10:56:03;;;;;;;4.40;2.30;;;17.40;33.90;;;;;;5098409;28;20397;-53
2022/04/17 10:58:48;;;;;;;5.53;2.30;;;17.80;32.80;;;;;;5098098;28;20304;-53
2022/04/17 11:01:15;;;;;;;2.53;2.10;;;17.40;31.10;;;;;;5097693;28;20076;-53
2022/04/17 11:03:54;;;;;;;4.10;2.88;;;17.10;32.50;;;;;;5098053;28;20028;-53
2022/04/17 11:06:30;;;;;;;3.90;2.40;;;16.80;33.00;;;;;;5097982;28;20474;-53
2022/04/17 11:09:20;;;;;;;5.95;2.70;;;16.30;32.50;;;;;;5097910;28;20024;-53
2022/04/17 11:11:46;;;;;;;3.95;2.40;;;16.40;34.40;;;;;;5097755;28;20054;-53
2022/04/17 11:14:17;;;;;;;4.88;2.80;;;16.70;33.90;;;;;;5097525;28;20065;-53
2022/04/17 11:16:54;;;;;;;10.75;4.90;;;16.60;32.80;;;;;;5097593;28;20035;-53
2022/04/17 11:19:33;;;;;;;5.43;3.85;;;16.20;32.80;;;;;;5097738;28;20035;-53
2022/04/17 11:22:04;;;;;;;6.25;4.35;;;15.80;33.10;;;;;;5097515;28;20035;-53
2022/04/17 11:24:55;;;;;;;5.57;2.75;;;15.70;34.30;;;;;;5097507;28;20024;-53
2022/04/17 11:27:42;;;;;;;3.15;2.85;;;15.70;33.90;;;;;;5097602;28;20036;-53
2022/04/17 11:30:14;;;;;;;6.10;3.10;;;16.40;35.10;;;;;;5097499;28;20039;-53
2022/04/17 11:32:40;;;;;;;5.35;2.60;;;16.70;33.90;;;;;;5097442;28;20031;-53
2022/04/17 11:35:23;;;;;;;5.28;2.72;;;16.90;32.10;;;;;;5097288;28;20027;-53
2022/04/17 11:37:52;;;;;;;6.65;2.50;;;17.40;33.00;;;;;;5097345;28;20032;-53
2022/04/17 11:40:19;;;;;;;11.57;6.63;;;17.50;31.40;;;;;;5097227;28;20563;-53
2022/04/17 11:42:48;;;;;;;4.82;2.78;;;17.60;31.30;;;;;;5096059;28;20027;-53
2022/04/17 11:45:16;;;;;;;3.97;2.63;;;17.60;31.80;;;;;;5097197;28;20024;-53
2022/04/17 11:47:44;;;;;;;6.47;3.33;;;17.90;32.70;;;;;;5097159;28;20107;-53
2022/04/17 11:50:21;;;;;;;5.65;3.17;;;17.90;32.00;;;;;;5097122;28;20024;-53
2022/04/17 11:52:51;;;;;;;7.82;5.38;;;17.60;30.40;;;;;;5097048;28;20073;-53
2022/04/17 11:55:23;;;;;;;7.05;3.35;;;16.80;29.80;;;;;;5078670;28;20044;-53
2022/04/17 11:57:49;;;;;;;7.95;3.90;;;16.70;30.60;;;;;;5096960;28;20043;-53
2022/04/17 12:00:15;;;;;;;3.78;2.42;;;16.30;31.70;;;;;;5096719;28;20040;-53
2022/04/17 12:02:41;;;;;;;3.85;2.33;;;16.30;32.80;;;;;;5096833;28;20024;-53
2022/04/17 12:05:09;;;;;;;8.00;5.45;;;16.20;31.10;;;;;;5096979;28;20028;-53
2022/04/17 12:07:35;;;;;;;7.68;3.10;;;16.00;31.80;;;;;;5096859;28;20020;-53
2022/04/17 12:10:06;;;;;;;2.85;2.28;;;16.00;33.60;;;;;;5096614;28;20111;-53
2022/04/17 12:12:37;;;;;;;4.60;2.53;;;16.00;33.20;;;;;;5096617;28;20082;-53
2022/04/17 12:15:05;;;;;;;6.50;3.40;;;16.00;33.50;;;;;;5096791;28;20081;-53
2022/04/17 12:17:33;;;;;;;6.32;3.03;;;16.40;34.40;;;;;;5096418;28;20044;-53
2022/04/17 12:20:00;;;;;;;8.93;5.32;;;16.60;34.30;;;;;;5096490;28;20028;-53
2022/04/17 12:22:27;;;;;;;9.52;4.05;;;16.80;34.00;;;;;;5096315;28;20039;-53
2022/04/17 12:24:53;;;;;;;4.53;2.75;;;16.80;33.00;;;;;;5096509;28;20024;-53
2022/04/17 12:27:21;;;;;;;4.38;2.65;;;16.20;33.40;;;;;;5096408;28;20028;-53
2022/04/17 12:29:51;;;;;;;4.88;3.13;;;16.30;32.70;;;;;;5096326;28;20050;-53
2022/04/17 12:32:20;;;;;;;6.20;2.97;;;16.00;34.20;;;;;;5096366;28;20050;-53
2022/04/17 12:34:56;;;;;;;5.35;2.35;;;16.20;35.00;;;;;;5096323;28;20051;-53
2022/04/17 12:37:28;;;;;;;5.22;3.08;;;16.20;30.80;;;;;;5096169;28;20031;-53
2022/04/17 12:40:14;;;;;;;5.75;2.60;;;15.80;32.70;;;;;;5096158;28;20017;-53
2022/04/17 12:42:41;;;;;;;5.82;3.55;;;16.00;33.70;;;;;;5096036;28;20028;-53
2022/04/17 12:45:08;;;;;;;5.38;2.58;;;16.30;33.60;;;;;;5096259;28;20115;-53
2022/04/17 12:47:36;;;;;;;4.55;2.08;;;16.50;33.50;;;;;;5095894;28;20028;-53
2022/04/17 12:50:07;;;;;;;3.75;1.95;;;16.70;32.50;;;;;;5095981;28;20024;-53
2022/04/17 12:52:33;;;;;;;8.07;3.08;;;16.50;32.80;;;;;;5095871;28;20127;-53
2022/04/17 12:55:10;;;;;;;4.65;2.42;;;16.20;31.70;;;;;;5095697;28;20030;-53
2022/04/17 12:57:37;;;;;;;8.45;2.67;;;16.00;31.80;;;;;;5096003;28;20106;-53
2022/04/17 13:00:15;;;;;;;9.52;5.00;;;15.80;31.30;;;;;;5095378;28;20028;-53
2022/04/17 13:02:41;;;;;;;4.80;3.08;;;15.80;34.00;;;;;;5095828;28;20049;-53
2022/04/17 13:05:07;;;;;;;5.47;4.35;;;15.50;32.20;;;;;;5095920;28;20083;-53
2022/04/17 13:07:35;;;;;;;6.03;2.90;;;15.80;32.70;;;;;;5095643;28;20240;-53